createdAt,value
2022-08-21T00:00:06.482Z,16.668396
2022-08-21T00:03:31.743Z,16.5979
2022-08-21T00:06:57.011Z,16.557617
2022-08-21T00:10:22.269Z,16.557617
2022-08-21T00:13:47.553Z,16.557617
2022-08-21T00:17:12.842Z,16.557617
2022-08-21T00:20:38.117Z,16.567688
2022-08-21T00:24:03.388Z,16.607971
2022-08-21T00:27:28.652Z,16.698608
2022-08-21T00:30:53.928Z,16.678467
2022-08-21T00:34:19.184Z,16.748962
2022-08-21T00:37:44.449Z,16.759033
2022-08-21T00:41:13.429Z,16.779175
2022-08-21T00:44:34.980Z,16.759033
2022-08-21T00:48:00.247Z,16.748962
2022-08-21T00:51:25.525Z,16.779175
2022-08-21T00:54:50.791Z,16.779175
2022-08-21T00:58:16.510Z,16.748962
2022-08-21T01:01:41.366Z,16.728821
2022-08-21T01:05:06.635Z,16.668396
2022-08-21T01:08:31.894Z,16.668396
2022-08-21T01:11:57.165Z,16.658325
2022-08-21T01:15:22.430Z,16.577759
2022-08-21T01:18:47.719Z,16.527405
2022-08-21T01:22:13.002Z,16.497192
2022-08-21T01:25:38.295Z,16.416626
2022-08-21T01:29:03.557Z,16.376343
2022-08-21T01:32:28.836Z,16.34613
2022-08-21T01:35:54.099Z,16.386414
2022-08-21T01:39:19.363Z,16.386414
2022-08-21T01:42:44.644Z,16.456909
2022-08-21T01:46:09.901Z,16.527405
2022-08-21T01:49:35.165Z,16.517334
2022-08-21T01:53:00.437Z,16.567688
2022-08-21T01:56:25.698Z,16.5979
2022-08-21T01:59:50.955Z,16.658325
2022-08-21T02:03:25.898Z,16.668396
2022-08-21T02:06:41.505Z,16.668396
2022-08-21T02:10:06.772Z,16.658325
2022-08-21T02:13:32.061Z,16.678467
2022-08-21T02:17:00.490Z,16.668396
2022-08-21T02:20:22.616Z,16.628113
2022-08-21T02:23:47.899Z,16.628113
2022-08-21T02:27:13.163Z,16.607971
2022-08-21T02:30:38.440Z,16.628113
2022-08-21T02:34:03.698Z,16.607971
2022-08-21T02:37:28.963Z,16.577759
2022-08-21T02:40:54.239Z,16.628113
2022-08-21T02:44:19.505Z,16.638184
2022-08-21T02:47:44.778Z,16.658325
2022-08-21T02:51:10.054Z,16.638184
2022-08-21T02:54:35.319Z,16.607971
2022-08-21T02:58:00.578Z,16.668396
2022-08-21T03:01:25.924Z,16.728821
2022-08-21T03:04:51.130Z,16.779175
2022-08-21T03:08:16.387Z,16.809387
2022-08-21T03:11:41.654Z,16.829529
2022-08-21T03:15:06.920Z,16.859741
2022-08-21T03:18:32.234Z,16.859741
2022-08-21T03:21:57.483Z,16.859741
2022-08-21T03:25:22.999Z,16.859741
2022-08-21T03:28:48.044Z,16.829529
2022-08-21T03:32:13.326Z,16.809387
2022-08-21T03:35:38.594Z,16.759033
2022-08-21T03:39:03.857Z,16.789246
2022-08-21T03:42:29.116Z,16.779175
2022-08-21T03:45:54.391Z,16.809387
2022-08-21T03:49:19.649Z,16.779175
2022-08-21T03:52:44.928Z,16.748962
2022-08-21T03:56:10.218Z,16.708679
2022-08-21T03:59:35.484Z,16.779175
2022-08-21T04:03:00.772Z,16.809387
2022-08-21T04:06:26.031Z,16.84967
2022-08-21T04:09:51.311Z,16.84967
2022-08-21T04:13:16.592Z,16.879883
2022-08-21T04:16:41.872Z,16.910095
2022-08-21T04:20:07.164Z,16.910095
2022-08-21T04:23:32.442Z,16.889954
2022-08-21T04:26:57.697Z,16.910095
2022-08-21T04:30:27.541Z,16.889954
2022-08-21T04:33:48.232Z,16.859741
2022-08-21T04:37:13.486Z,16.859741
2022-08-21T04:40:38.754Z,16.84967
2022-08-21T04:44:04.011Z,16.859741
2022-08-21T04:47:41.922Z,16.910095
2022-08-21T04:50:54.591Z,16.930237
2022-08-21T04:54:19.882Z,16.930237
2022-08-21T04:57:48.384Z,16.930237
2022-08-21T05:01:10.458Z,16.910095
2022-08-21T05:04:35.711Z,16.910095
2022-08-21T05:08:00.985Z,16.910095
2022-08-21T05:11:26.257Z,16.879883
2022-08-21T05:14:51.530Z,16.910095
2022-08-21T05:18:16.765Z,16.930237
2022-08-21T05:21:42.038Z,16.910095
2022-08-21T05:25:10.355Z,16.960449
2022-08-21T05:28:32.659Z,17.010803
2022-08-21T05:31:57.933Z,17.000732
2022-08-21T05:35:23.194Z,17.010803
2022-08-21T05:38:48.457Z,17.071228
2022-08-21T05:42:13.790Z,17.121582
2022-08-21T05:45:42.449Z,17.141724
2022-08-21T05:49:04.393Z,17.141724
2022-08-21T05:52:29.747Z,17.151794
2022-08-21T05:55:54.967Z,17.161865
2022-08-21T05:59:20.234Z,17.192078
2022-08-21T06:02:45.528Z,17.232361
2022-08-21T06:06:10.777Z,17.302856
2022-08-21T06:09:36.042Z,17.282715
2022-08-21T06:13:01.421Z,17.282715
2022-08-21T06:16:26.862Z,17.312927
2022-08-21T06:19:52.129Z,17.302856
2022-08-21T06:23:17.455Z,17.333069
2022-08-21T06:26:42.732Z,17.302856
2022-08-21T06:30:08.056Z,17.363281
2022-08-21T06:33:33.333Z,17.413635
2022-08-21T06:36:58.683Z,17.484131
2022-08-21T06:40:24.007Z,17.494202
2022-08-21T06:43:49.386Z,17.564697
2022-08-21T06:47:14.901Z,17.615051
2022-08-21T06:50:40.209Z,17.635193
2022-08-21T06:54:05.731Z,17.625122
2022-08-21T06:57:30.897Z,17.675476
2022-08-21T07:01:00.237Z,17.705688
2022-08-21T07:04:21.483Z,17.745972
2022-08-21T07:07:46.748Z,17.806396
2022-08-21T07:11:12.009Z,17.886963
2022-08-21T07:14:37.533Z,17.917175
2022-08-21T07:18:02.805Z,17.957458
2022-08-21T07:21:28.076Z,17.987671
2022-08-21T07:24:53.333Z,18.078308
2022-08-21T07:28:18.563Z,18.078308
2022-08-21T07:31:43.816Z,18.118591
2022-08-21T07:35:09.065Z,18.168945
2022-08-21T07:38:34.323Z,18.179016
2022-08-21T07:41:59.562Z,18.22937
2022-08-21T07:45:24.810Z,18.289795
2022-08-21T07:48:50.058Z,18.289795
2022-08-21T07:52:15.321Z,18.390503
2022-08-21T07:55:40.637Z,18.501282
2022-08-21T07:59:05.901Z,18.541565
2022-08-21T08:02:31.169Z,18.581848
2022-08-21T08:05:56.402Z,18.662415
2022-08-21T08:09:21.647Z,18.722839
2022-08-21T08:12:46.904Z,18.73291
2022-08-21T08:16:12.134Z,18.753052
2022-08-21T08:19:37.373Z,18.73291
2022-08-21T08:23:02.876Z,18.753052
2022-08-21T08:26:27.864Z,18.73291
2022-08-21T08:29:53.131Z,18.662415
2022-08-21T08:33:18.380Z,18.632202
2022-08-21T08:36:43.633Z,18.632202
2022-08-21T08:40:08.955Z,18.632202
2022-08-21T08:43:34.181Z,18.662415
2022-08-21T08:46:59.465Z,18.73291
2022-08-21T08:50:24.739Z,18.813477
2022-08-21T08:53:50.007Z,18.883972
2022-08-21T08:57:15.316Z,18.924255
2022-08-21T09:00:42.421Z,18.944397
2022-08-21T09:04:07.716Z,18.914185
2022-08-21T09:07:33.537Z,18.904114
2022-08-21T09:10:59.026Z,18.904114
2022-08-21T09:14:25.017Z,18.944397
2022-08-21T09:17:50.228Z,18.924255
2022-08-21T09:21:16.886Z,19.035034
2022-08-21T09:24:42.101Z,19.055176
2022-08-21T09:28:07.419Z,19.155884
2022-08-21T09:31:32.849Z,19.135742
2022-08-21T09:34:58.127Z,19.10553
2022-08-21T09:38:23.395Z,19.075317
2022-08-21T09:41:48.642Z,19.095459
2022-08-21T09:45:13.857Z,19.055176
2022-08-21T09:48:39.137Z,19.065247
2022-08-21T09:52:04.332Z,19.176025
2022-08-21T09:55:29.567Z,19.306946
2022-08-21T09:58:54.839Z,19.407654
2022-08-21T10:02:20.091Z,19.437866
2022-08-21T10:05:45.361Z,19.538574
2022-08-21T10:09:15.227Z,19.588928
2022-08-21T10:12:35.868Z,19.629211
2022-08-21T10:16:01.096Z,19.810486
2022-08-21T10:19:26.581Z,20.021973
2022-08-21T10:22:52.047Z,20.102539
2022-08-21T10:26:17.356Z,20.032043
2022-08-21T10:29:43.103Z,20.011902
2022-08-21T10:33:09.757Z,20.11261
2022-08-21T10:36:35.058Z,20.233459
2022-08-21T10:40:03.807Z,20.414734
2022-08-21T10:43:28.977Z,20.535583
2022-08-21T10:46:54.284Z,20.656433
2022-08-21T10:50:19.558Z,20.767212
2022-08-21T10:53:44.877Z,20.968628
2022-08-21T10:57:10.155Z,21.039124
2022-08-21T11:00:35.462Z,20.968628
2022-08-21T11:04:00.711Z,20.86792
2022-08-21T11:07:25.975Z,20.726929
2022-08-21T11:10:58.132Z,20.757141
2022-08-21T11:14:17.077Z,20.726929
2022-08-21T11:17:42.379Z,20.787354
2022-08-21T11:21:07.647Z,20.908203
2022-08-21T11:24:32.906Z,21.059265
2022-08-21T11:27:58.160Z,21.069336
2022-08-21T11:31:23.390Z,21.039124
2022-08-21T11:34:48.738Z,20.98877
2022-08-21T11:38:13.996Z,20.918274
2022-08-21T11:41:39.596Z,20.948486
2022-08-21T11:45:05.116Z,21.129761
2022-08-21T11:48:30.658Z,21.280823
2022-08-21T11:51:55.949Z,21.381531
2022-08-21T11:55:23.711Z,21.441956
2022-08-21T11:58:46.411Z,21.472168
2022-08-21T12:02:11.761Z,21.462097
2022-08-21T12:05:36.930Z,21.431885
2022-08-21T12:09:02.218Z,21.472168
2022-08-21T12:12:27.522Z,21.522522
2022-08-21T12:15:52.793Z,21.62323
2022-08-21T12:19:18.654Z,21.673584
2022-08-21T12:22:43.931Z,21.693726
2022-08-21T12:26:09.297Z,21.834717
2022-08-21T12:29:35.481Z,21.844788
2022-08-21T12:33:00.861Z,21.804504
2022-08-21T12:36:26.107Z,21.713867
2022-08-21T12:39:51.475Z,21.713867
2022-08-21T12:43:16.677Z,21.643372
2022-08-21T12:46:41.976Z,21.582947
2022-08-21T12:50:07.234Z,21.542664
2022-08-21T12:53:32.516Z,21.683655
2022-08-21T12:56:58.600Z,21.844788
2022-08-21T13:00:23.883Z,21.935425
2022-08-21T13:03:49.159Z,21.905212
2022-08-21T13:07:14.443Z,21.824646
2022-08-21T13:10:39.732Z,21.723938
2022-08-21T13:14:05.196Z,21.673584
2022-08-21T13:17:30.287Z,21.683655
2022-08-21T13:20:55.551Z,21.794434
2022-08-21T13:24:44.245Z,21.864929
2022-08-21T13:27:46.097Z,21.955566
2022-08-21T13:31:11.396Z,22.026062
2022-08-21T13:34:36.673Z,22.136841
2022-08-21T13:38:01.953Z,22.177124
2022-08-21T13:41:27.242Z,22.197266
2022-08-21T13:44:52.523Z,22.177124
2022-08-21T13:48:17.787Z,22.237549
2022-08-21T13:51:43.075Z,22.358398
2022-08-21T13:55:08.342Z,22.428894
2022-08-21T13:58:33.624Z,22.50946
2022-08-21T14:01:58.945Z,22.519531
2022-08-21T14:05:24.188Z,22.449036
2022-08-21T14:08:50.616Z,22.308044
2022-08-21T14:12:23.121Z,22.136841
2022-08-21T14:15:43.960Z,21.975708
2022-08-21T14:19:09.439Z,21.895142
2022-08-21T14:22:34.735Z,21.875
2022-08-21T14:26:00.026Z,21.905212
2022-08-21T14:29:25.290Z,21.935425
2022-08-21T15:04:58.863Z,22.056274
2022-08-21T15:08:24.294Z,22.066345
2022-08-21T15:11:49.586Z,22.146912
2022-08-21T15:15:14.881Z,22.116699
2022-08-21T15:18:40.148Z,22.086487
2022-08-21T15:22:05.448Z,22.046204
2022-08-21T15:25:30.747Z,21.985779
2022-08-21T15:28:56.090Z,21.915283
2022-08-21T15:32:21.372Z,21.864929
2022-08-21T15:35:46.665Z,21.844788
2022-08-21T15:39:11.979Z,21.824646
2022-08-21T15:42:37.289Z,21.774292
2022-08-21T15:46:02.585Z,21.794434
2022-08-21T15:49:27.916Z,21.844788
2022-08-21T15:52:53.213Z,21.834717
2022-08-21T15:56:18.508Z,21.875
2022-08-21T15:59:43.801Z,21.864929
2022-08-21T16:03:09.138Z,21.834717
2022-08-21T16:06:37.782Z,21.75415
2022-08-21T16:09:59.811Z,21.713867
2022-08-21T16:13:25.106Z,21.693726
2022-08-21T16:16:50.418Z,21.683655
2022-08-21T16:20:15.713Z,21.653442
2022-08-21T16:23:41.020Z,21.62323
2022-08-21T16:27:07.973Z,21.62323
2022-08-21T16:30:31.780Z,21.613159
2022-08-21T16:33:57.811Z,21.562805
2022-08-21T16:37:24.502Z,21.522522
2022-08-21T16:40:48.178Z,21.472168
2022-08-21T16:44:13.509Z,21.421814
2022-08-21T16:47:38.837Z,21.401672
2022-08-21T16:51:04.205Z,21.351318
2022-08-21T16:54:29.516Z,21.321106
2022-08-21T16:57:54.837Z,21.280823
2022-08-21T17:01:20.164Z,21.24054
2022-08-21T17:04:45.446Z,21.170044
2022-08-21T17:08:10.752Z,21.139832
2022-08-21T17:11:43.918Z,21.099548
2022-08-21T17:15:09.181Z,21.089478
2022-08-21T17:18:34.507Z,21.039124
2022-08-21T17:21:59.818Z,20.98877
2022-08-21T17:25:25.134Z,20.938416
2022-08-21T17:28:54.284Z,20.888062
2022-08-21T17:32:15.817Z,20.847778
2022-08-21T17:35:41.129Z,20.797424
2022-08-21T17:39:06.471Z,20.716858
2022-08-21T17:42:31.902Z,20.636292
2022-08-21T17:45:57.301Z,20.61615
2022-08-21T17:49:22.646Z,20.565796
2022-08-21T17:52:47.984Z,20.505371
2022-08-21T17:56:13.424Z,20.465088
2022-08-21T17:59:38.795Z,20.424805
2022-08-21T18:03:04.203Z,20.36438
2022-08-21T18:06:29.610Z,20.263672
2022-08-21T18:09:54.991Z,20.173035
2022-08-21T18:13:20.323Z,20.11261
2022-08-21T18:16:45.752Z,19.961548
2022-08-21T18:20:11.125Z,19.800415
2022-08-21T18:23:43.699Z,19.588928
2022-08-21T18:27:02.293Z,19.3573
2022-08-21T18:30:27.640Z,19.10553
2022-08-21T18:33:57.076Z,18.873901
2022-08-21T18:37:18.282Z,18.753052
2022-08-21T18:40:43.618Z,18.652344
2022-08-21T18:44:08.950Z,18.551636
2022-08-21T18:47:34.335Z,18.471069
2022-08-21T18:50:59.720Z,18.35022
2022-08-21T18:54:25.053Z,18.259583
2022-08-21T18:57:50.409Z,18.289795
2022-08-21T19:01:15.799Z,18.330078
2022-08-21T19:04:44.492Z,18.370361
2022-08-21T19:08:06.470Z,18.330078
2022-08-21T19:11:31.786Z,18.259583
2022-08-21T19:14:57.139Z,18.199158
2022-08-21T19:18:24.151Z,18.179016
2022-08-21T19:21:49.407Z,18.168945
2022-08-21T19:25:12.930Z,18.199158
2022-08-21T19:28:38.208Z,18.118591
2022-08-21T19:32:03.463Z,18.138733
2022-08-21T19:35:28.730Z,18.078308
2022-08-21T19:38:53.998Z,17.927246
2022-08-21T19:42:19.252Z,17.806396
2022-08-21T19:45:44.513Z,17.705688
2022-08-21T19:49:09.773Z,17.635193
2022-08-21T19:52:35.745Z,17.584839
2022-08-21T19:56:00.335Z,17.514343
2022-08-21T19:59:25.621Z,17.403564
2022-08-21T20:02:50.868Z,17.373352
2022-08-21T20:06:16.139Z,17.333069
2022-08-21T20:09:41.406Z,17.333069
2022-08-21T20:13:06.663Z,17.262573
2022-08-21T20:16:31.925Z,17.212219
2022-08-21T20:19:57.185Z,17.081299
2022-08-21T20:23:27.851Z,17.010803
2022-08-21T20:26:48.815Z,16.930237
2022-08-21T20:30:12.948Z,16.910095
2022-08-21T20:33:38.213Z,16.859741
2022-08-21T20:37:05.320Z,16.879883
2022-08-21T20:40:32.716Z,16.930237
2022-08-21T20:43:53.973Z,16.960449
2022-08-21T20:47:19.244Z,16.879883
2022-08-21T20:50:44.496Z,16.789246
2022-08-21T20:54:09.751Z,16.779175
2022-08-21T20:57:35.028Z,16.678467
2022-08-21T21:01:00.290Z,16.577759
2022-08-21T21:04:25.560Z,16.497192
2022-08-21T21:07:50.832Z,16.406555
2022-08-21T21:11:16.087Z,16.34613
2022-08-21T21:14:41.353Z,16.275635
2022-08-21T21:18:06.618Z,16.245422
2022-08-21T21:21:33.250Z,16.205139
2022-08-21T21:24:57.134Z,16.174927
2022-08-21T21:28:22.405Z,16.154785
2022-08-21T21:31:47.664Z,16.114502
2022-08-21T21:35:12.918Z,16.054077
2022-08-21T21:38:38.159Z,16.003723
2022-08-21T21:42:03.432Z,15.96344
2022-08-21T21:45:28.681Z,15.903015
2022-08-21T21:48:53.956Z,15.933228
2022-08-21T21:52:19.206Z,15.862732
2022-08-21T21:55:44.470Z,15.83252
2022-08-21T21:59:09.899Z,15.782166
2022-08-21T22:02:34.986Z,15.751953
2022-08-21T22:06:00.235Z,15.721741
2022-08-21T22:09:25.548Z,15.71167
2022-08-21T22:16:16.079Z,15.691528
2022-08-21T22:19:41.334Z,15.681458
2022-08-21T22:23:06.592Z,15.651245
2022-08-21T22:26:31.864Z,15.641174
2022-08-21T22:29:57.121Z,15.600891
2022-08-21T22:33:22.384Z,15.59082
2022-08-21T22:36:47.657Z,15.540466
2022-08-21T22:40:12.976Z,15.469971
2022-08-21T22:43:38.169Z,15.4599
2022-08-21T22:47:03.431Z,15.409546
2022-08-21T22:50:28.686Z,15.389404
2022-08-21T22:53:53.932Z,15.379333
2022-08-21T22:57:19.209Z,15.33905
2022-08-21T23:00:44.479Z,15.318909
2022-08-21T23:04:09.733Z,15.318909
2022-08-21T23:07:34.999Z,15.308838
2022-08-21T23:11:00.255Z,15.278625
2022-08-21T23:14:25.510Z,15.248413
2022-08-21T23:17:50.787Z,15.228271
2022-08-21T23:21:16.043Z,15.198059
2022-08-21T23:24:46.535Z,15.167847
2022-08-21T23:28:06.574Z,15.157776
2022-08-21T23:31:31.830Z,15.127563
2022-08-21T23:34:57.090Z,15.107422
2022-08-21T23:38:22.347Z,15.097351
2022-08-21T23:45:13.896Z,15.026855
2022-08-21T23:48:38.143Z,15.026855
2022-08-21T23:52:04.295Z,14.986572
2022-08-21T23:55:28.673Z,14.976501
2022-08-21T23:58:53.918Z,14.976501
